createdAt,value
2017-10-11T00:01:54.883Z,6.60
2017-10-11T00:04:21.438Z,6.73
2017-10-11T00:06:47.745Z,5.90
2017-10-11T00:09:14.024Z,5.87
2017-10-11T00:11:40.287Z,7.17
2017-10-11T00:14:06.564Z,6.13
2017-10-11T00:16:32.874Z,6.40
2017-10-11T00:18:59.180Z,7.00
2017-10-11T00:21:25.437Z,6.20
2017-10-11T00:23:51.760Z,5.90
2017-10-11T00:26:18.046Z,7.03
2017-10-11T00:28:45.475Z,6.60
2017-10-11T00:31:11.766Z,6.77
2017-10-11T00:33:38.107Z,5.80
2017-10-11T00:36:04.434Z,5.50
2017-10-11T00:38:30.760Z,6.73
2017-10-11T00:40:57.061Z,5.80
2017-10-11T00:43:23.338Z,6.37
2017-10-11T00:45:49.652Z,5.57
2017-10-11T00:48:15.966Z,5.73
2017-10-11T00:50:42.223Z,4.90
2017-10-11T00:53:08.531Z,6.07
2017-10-11T00:55:34.828Z,5.20
2017-10-11T00:58:01.857Z,5.57
2017-10-11T01:00:28.215Z,5.10
2017-10-11T01:02:55.279Z,5.07
2017-10-11T01:05:21.581Z,5.33
2017-10-11T01:07:48.629Z,5.10
2017-10-11T01:10:15.665Z,4.93
2017-10-11T01:12:42.725Z,4.57
2017-10-11T01:15:09.783Z,4.93
2017-10-11T01:17:36.826Z,4.63
2017-10-11T01:20:03.872Z,4.83
2017-10-11T01:22:30.960Z,5.00
2017-10-11T01:24:57.232Z,4.27
2017-10-11T01:27:23.526Z,4.60
2017-10-11T01:29:49.812Z,4.33
2017-10-11T01:32:16.854Z,4.10
2017-10-11T01:34:43.944Z,3.97
2017-10-11T01:37:10.247Z,3.73
2017-10-11T01:39:37.316Z,4.37
2017-10-11T01:42:03.697Z,4.43
2017-10-11T01:44:30.013Z,3.73
2017-10-11T01:46:56.351Z,3.43
2017-10-11T01:49:22.681Z,3.80
2017-10-11T01:51:49.027Z,3.63
2017-10-11T01:54:15.381Z,4.20
2017-10-11T01:56:42.428Z,3.27
2017-10-11T01:59:09.469Z,2.93
2017-10-11T02:01:35.843Z,3.50
2017-10-11T02:04:02.117Z,3.13
2017-10-11T02:06:28.400Z,2.93
2017-10-11T02:08:54.691Z,4.17
2017-10-11T02:11:21.016Z,3.67
2017-10-11T02:13:47.331Z,3.43
2017-10-11T02:16:13.596Z,3.10
2017-10-11T02:18:39.945Z,2.90
2017-10-11T02:21:06.277Z,3.73
2017-10-11T02:23:32.578Z,3.07
2017-10-11T02:25:59.597Z,2.77
2017-10-11T02:28:25.898Z,3.00
2017-10-11T02:30:52.211Z,2.80
2017-10-11T02:33:18.585Z,3.43
2017-10-11T02:35:44.971Z,3.10
2017-10-11T02:38:11.285Z,3.00
2017-10-11T02:40:38.416Z,3.13
2017-10-11T02:43:04.720Z,3.13
2017-10-11T02:45:31.779Z,3.17
2017-10-11T02:47:58.060Z,3.10
2017-10-11T02:50:24.391Z,3.20
2017-10-11T02:52:50.732Z,3.03
2017-10-11T02:55:17.089Z,2.83
2017-10-11T02:57:43.385Z,3.40
2017-10-11T03:00:09.693Z,3.43
2017-10-11T03:02:36.777Z,3.10
2017-10-11T03:05:03.068Z,3.57
2017-10-11T03:07:29.389Z,2.70
2017-10-11T03:09:55.721Z,4.10
2017-10-11T03:12:22.046Z,3.00
2017-10-11T03:14:48.470Z,2.53
2017-10-11T03:17:14.754Z,3.03
2017-10-11T03:19:41.053Z,3.60
2017-10-11T03:22:08.085Z,3.33
2017-10-11T03:24:34.498Z,2.70
2017-10-11T03:27:00.914Z,2.80
2017-10-11T03:29:27.268Z,3.00
2017-10-11T03:31:53.534Z,3.80
2017-10-11T03:34:21.050Z,2.03
2017-10-11T03:36:47.368Z,2.83
2017-10-11T03:39:13.712Z,2.97
2017-10-11T03:41:40.052Z,2.80
2017-10-11T03:44:06.378Z,2.20
2017-10-11T03:46:32.710Z,2.80
2017-10-11T03:48:58.980Z,3.17
2017-10-11T03:51:25.274Z,1.80
2017-10-11T03:53:51.609Z,1.77
2017-10-11T03:56:17.954Z,2.40
2017-10-11T03:58:44.243Z,1.80
2017-10-11T04:01:10.523Z,2.10
2017-10-11T04:03:36.977Z,2.23
2017-10-11T04:06:03.989Z,1.97
2017-10-11T04:08:31.167Z,2.17
2017-10-11T04:10:58.229Z,2.17
2017-10-11T04:13:24.520Z,2.27
2017-10-11T04:15:50.849Z,2.20
2017-10-11T04:18:17.173Z,2.10
2017-10-11T04:20:43.497Z,2.30
2017-10-11T04:23:09.842Z,1.80
2017-10-11T04:25:36.160Z,2.37
2017-10-11T04:28:02.477Z,2.50
2017-10-11T04:30:28.750Z,2.60
2017-10-11T04:32:55.061Z,2.90
2017-10-11T04:35:21.372Z,2.30
2017-10-11T04:37:47.720Z,2.10
2017-10-11T04:40:14.060Z,2.33
2017-10-11T04:42:40.402Z,2.03
2017-10-11T04:45:06.706Z,2.60
2017-10-11T04:47:33.080Z,2.50
2017-10-11T04:49:59.433Z,2.90
2017-10-11T04:52:25.766Z,2.10
2017-10-11T04:54:52.084Z,2.83
2017-10-11T04:57:19.164Z,2.63
2017-10-11T04:59:45.494Z,2.73
2017-10-11T05:02:11.889Z,2.33
2017-10-11T05:04:38.913Z,2.20
2017-10-11T05:07:05.197Z,2.30
2017-10-11T05:09:31.540Z,2.53
2017-10-11T05:12:04.942Z,2.53
2017-10-11T05:14:31.300Z,2.97
2017-10-11T05:16:57.620Z,2.87
2017-10-11T05:19:24.008Z,2.67
2017-10-11T05:21:50.340Z,2.97
2017-10-11T05:24:16.648Z,3.23
2017-10-11T05:26:43.010Z,3.23
2017-10-11T05:29:09.342Z,3.43
2017-10-11T05:31:35.809Z,2.60
2017-10-11T05:34:02.124Z,2.97
2017-10-11T05:36:28.371Z,2.70
2017-10-11T05:38:54.757Z,2.70
2017-10-11T05:41:21.039Z,3.30
2017-10-11T05:43:47.347Z,2.57
2017-10-11T05:46:13.691Z,2.70
2017-10-11T05:48:40.011Z,2.80
2017-10-11T05:51:06.302Z,3.43
2017-10-11T05:53:32.615Z,3.53
2017-10-11T05:55:58.954Z,3.40
2017-10-11T05:58:25.215Z,3.20
2017-10-11T06:00:51.545Z,3.03
2017-10-11T06:03:17.851Z,4.20
2017-10-11T06:05:44.169Z,2.87
2017-10-11T06:08:10.505Z,4.07
2017-10-11T06:10:37.609Z,4.00
2017-10-11T06:13:03.958Z,4.13
2017-10-11T06:15:30.284Z,3.53
2017-10-11T06:17:56.623Z,3.23
2017-10-11T06:20:22.973Z,4.13
2017-10-11T06:22:49.306Z,3.60
2017-10-11T06:25:15.633Z,3.73
2017-10-11T06:27:41.876Z,3.40
2017-10-11T06:30:08.214Z,3.93
2017-10-11T06:32:34.524Z,3.67
2017-10-11T06:35:00.923Z,4.17
2017-10-11T06:37:27.291Z,4.47
2017-10-11T06:39:53.680Z,4.87
2017-10-11T06:42:19.987Z,4.03
2017-10-11T06:44:46.241Z,3.80
2017-10-11T06:47:12.527Z,4.20
2017-10-11T06:49:39.658Z,3.43
2017-10-11T06:52:05.986Z,3.63
2017-10-11T06:54:32.340Z,4.00
2017-10-11T06:56:59.396Z,3.70
2017-10-11T06:59:26.543Z,3.33
2017-10-11T07:01:53.659Z,3.67
2017-10-11T07:04:19.997Z,3.20
2017-10-11T07:06:46.318Z,4.10
2017-10-11T07:09:12.623Z,3.33
2017-10-11T07:11:38.975Z,4.23
2017-10-11T07:14:05.345Z,3.37
2017-10-11T07:16:31.689Z,4.50
2017-10-11T07:18:58.123Z,3.17
2017-10-11T07:21:24.511Z,3.70
2017-10-11T07:23:50.849Z,3.40
2017-10-11T07:26:17.177Z,3.17
2017-10-11T07:28:50.475Z,3.70
2017-10-11T07:31:16.907Z,3.10
2017-10-11T07:33:43.253Z,3.47
2017-10-11T07:36:09.670Z,3.40
2017-10-11T07:38:36.039Z,3.20
2017-10-11T07:41:03.097Z,3.70
2017-10-11T07:43:29.475Z,3.47
2017-10-11T07:45:55.885Z,3.47
2017-10-11T07:48:22.168Z,2.83
2017-10-11T07:50:48.569Z,3.20
2017-10-11T07:53:15.525Z,3.30
2017-10-11T07:55:41.863Z,3.00
2017-10-11T07:58:08.203Z,3.13
2017-10-11T08:00:34.566Z,2.70
2017-10-11T08:03:00.967Z,2.47
2017-10-11T08:05:27.277Z,2.57
2017-10-11T08:07:53.669Z,3.23
2017-10-11T08:10:19.978Z,2.80
2017-10-11T08:12:47.102Z,2.80
2017-10-11T08:15:13.506Z,2.80
2017-10-11T08:17:40.001Z,3.67
2017-10-11T08:20:06.408Z,2.83
2017-10-11T08:22:32.744Z,3.30
2017-10-11T08:24:59.153Z,3.23
2017-10-11T08:27:25.526Z,3.93
2017-10-11T08:29:52.617Z,3.30
2017-10-11T08:32:19.076Z,3.00
2017-10-11T08:34:45.382Z,2.80
2017-10-11T08:37:11.752Z,3.47
2017-10-11T08:39:38.190Z,3.60
2017-10-11T08:42:04.532Z,3.27
2017-10-11T08:44:31.582Z,3.93
2017-10-11T08:46:58.696Z,3.60
2017-10-11T08:49:25.166Z,3.20
2017-10-11T08:51:52.299Z,3.40
2017-10-11T08:54:18.689Z,3.70
2017-10-11T08:56:44.997Z,4.20
2017-10-11T08:59:11.421Z,4.57
2017-10-11T09:01:38.581Z,3.50
2017-10-11T09:04:05.759Z,3.30
2017-10-11T09:06:32.118Z,2.40
2017-10-11T09:08:58.580Z,3.53
2017-10-11T09:11:25.674Z,2.70
2017-10-11T09:13:52.139Z,3.27
2017-10-11T09:16:18.578Z,3.50
2017-10-11T09:18:44.921Z,3.10
2017-10-11T09:21:12.064Z,3.00
2017-10-11T09:23:39.281Z,3.33
2017-10-11T09:26:05.690Z,2.70
2017-10-11T09:28:32.159Z,3.63
2017-10-11T09:30:59.213Z,3.20
2017-10-11T09:33:25.544Z,3.00
2017-10-11T09:35:51.986Z,3.00
2017-10-11T09:38:18.357Z,3.50
2017-10-11T09:40:45.400Z,3.50
2017-10-11T09:43:11.667Z,3.30
2017-10-11T09:45:37.995Z,3.17
2017-10-11T09:48:04.359Z,3.20
2017-10-11T09:50:30.660Z,2.87
2017-10-11T09:52:57.195Z,3.07
2017-10-11T09:55:23.568Z,2.80
2017-10-11T09:57:49.868Z,2.87
2017-10-11T10:00:16.233Z,3.50
2017-10-11T10:02:42.548Z,3.03
2017-10-11T10:05:09.024Z,2.43
2017-10-11T10:07:35.409Z,2.90
2017-10-11T10:10:01.811Z,1.83
2017-10-11T10:12:28.203Z,2.80
2017-10-11T10:14:55.278Z,2.50
2017-10-11T10:17:21.619Z,2.10
2017-10-11T10:19:47.975Z,1.70
2017-10-11T10:22:14.336Z,1.60
2017-10-11T10:24:40.710Z,2.00
2017-10-11T10:27:06.994Z,1.57
2017-10-11T10:29:33.334Z,1.43
2017-10-11T10:31:59.754Z,1.80
2017-10-11T10:34:26.127Z,1.87
2017-10-11T10:36:52.461Z,2.03
2017-10-11T10:39:18.862Z,1.93
2017-10-11T10:41:45.228Z,2.37
2017-10-11T10:44:11.552Z,1.67
2017-10-11T10:46:37.856Z,1.80
2017-10-11T10:49:04.181Z,1.47
2017-10-11T10:51:30.582Z,1.57
2017-10-11T10:53:56.991Z,1.57
2017-10-11T10:56:23.323Z,2.07
2017-10-11T10:58:49.597Z,2.27
2017-10-11T11:01:15.938Z,1.70
2017-10-11T11:03:42.273Z,2.33
2017-10-11T11:06:08.593Z,2.73
2017-10-11T11:08:35.079Z,1.57
2017-10-11T11:11:01.470Z,1.93
2017-10-11T11:13:27.801Z,1.97
2017-10-11T11:15:54.201Z,1.93
2017-10-11T11:18:20.565Z,1.83
2017-10-11T11:20:46.866Z,1.97
2017-10-11T11:23:13.201Z,1.93
2017-10-11T11:25:40.373Z,2.93
2017-10-11T11:28:06.780Z,2.33
2017-10-11T11:30:33.110Z,2.37
2017-10-11T11:32:59.449Z,1.90
2017-10-11T11:35:25.832Z,2.03
2017-10-11T11:37:53.024Z,2.00
2017-10-11T11:40:19.484Z,1.73
2017-10-11T11:42:45.823Z,1.80
2017-10-11T11:45:12.270Z,2.07
2017-10-11T11:47:39.305Z,1.73
2017-10-11T11:50:05.635Z,2.13
2017-10-11T11:52:31.960Z,1.70
2017-10-11T11:54:58.296Z,1.60
2017-10-11T11:57:24.702Z,1.70
2017-10-11T11:59:51.177Z,1.77
2017-10-11T12:02:18.315Z,1.43
2017-10-11T12:04:44.705Z,2.27
2017-10-11T12:07:11.045Z,1.60
2017-10-11T12:09:37.381Z,1.30
2017-10-11T12:12:03.631Z,2.17
2017-10-11T12:14:29.939Z,1.30
2017-10-11T12:16:56.281Z,1.53
2017-10-11T12:19:22.639Z,1.80
2017-10-11T12:21:48.988Z,1.87
2017-10-11T12:24:16.149Z,1.10
2017-10-11T12:26:42.564Z,1.20
2017-10-11T12:29:09.602Z,1.20
2017-10-11T12:31:35.946Z,1.00
2017-10-11T12:34:03.044Z,2.00
2017-10-11T12:36:29.401Z,1.77
2017-10-11T12:38:55.768Z,2.10
2017-10-11T12:41:22.981Z,1.90
2017-10-11T12:43:49.279Z,1.47
2017-10-11T12:46:16.537Z,1.33
2017-10-11T12:48:42.870Z,1.50
2017-10-11T12:51:09.416Z,1.73
2017-10-11T12:53:35.844Z,1.70
2017-10-11T12:56:02.197Z,2.17
2017-10-11T12:58:28.543Z,1.60
2017-10-11T13:00:54.907Z,1.80
2017-10-11T13:03:21.293Z,1.53
2017-10-11T13:05:47.725Z,1.20
2017-10-11T13:08:14.017Z,1.67
2017-10-11T13:10:40.367Z,1.80
2017-10-11T13:13:06.676Z,1.50
2017-10-11T13:15:32.989Z,1.40
2017-10-11T13:17:59.303Z,1.47
2017-10-11T13:20:25.633Z,1.50
2017-10-11T13:22:51.942Z,1.50
2017-10-11T13:25:18.367Z,1.70
2017-10-11T13:27:44.618Z,1.30
2017-10-11T13:30:11.047Z,1.70
2017-10-11T13:32:37.379Z,1.57
2017-10-11T13:35:03.754Z,1.30
2017-10-11T13:37:30.141Z,2.00
2017-10-11T13:39:56.544Z,1.50
2017-10-11T13:42:22.869Z,1.50
2017-10-11T13:44:49.278Z,1.57
2017-10-11T13:47:16.369Z,1.77
2017-10-11T13:49:42.734Z,1.40
2017-10-11T13:52:09.564Z,1.63
2017-10-11T13:54:36.900Z,1.60
2017-10-11T13:57:03.226Z,2.00
2017-10-11T13:59:29.633Z,2.10
2017-10-11T14:01:56.534Z,1.63
2017-10-11T14:04:22.858Z,1.70
2017-10-11T14:06:49.270Z,1.30
2017-10-11T14:09:15.581Z,1.50
2017-10-11T14:11:41.887Z,1.47
2017-10-11T14:14:08.236Z,2.03
2017-10-11T14:16:34.660Z,1.60
2017-10-11T14:19:01.073Z,1.53
2017-10-11T14:21:28.233Z,1.83
2017-10-11T14:23:54.653Z,2.00
2017-10-11T14:26:21.009Z,1.70
2017-10-11T14:28:47.343Z,1.60
2017-10-11T14:31:13.671Z,2.07
2017-10-11T14:33:40.061Z,1.87
2017-10-11T14:38:32.827Z,2.10
2017-10-11T14:40:59.126Z,1.80
2017-10-11T14:43:26.108Z,1.90
2017-10-11T14:45:52.494Z,1.43
2017-10-11T14:48:18.898Z,1.73
2017-10-11T14:50:45.958Z,2.00
2017-10-11T14:53:13.062Z,1.67
2017-10-11T14:55:40.260Z,2.10
2017-10-11T14:58:06.628Z,2.53
2017-10-11T15:00:33.058Z,2.20
2017-10-11T15:02:59.395Z,1.70
2017-10-11T15:05:25.701Z,1.80
2017-10-11T15:07:52.069Z,2.37
2017-10-11T15:10:18.463Z,1.80
2017-10-11T15:12:44.761Z,2.43
2017-10-11T15:15:11.833Z,2.67
2017-10-11T15:17:38.171Z,2.00
2017-10-11T15:20:04.581Z,2.10
2017-10-11T15:22:31.778Z,2.10
2017-10-11T15:24:58.141Z,2.17
2017-10-11T15:27:24.452Z,2.23
2017-10-11T15:29:50.873Z,2.13
2017-10-11T15:32:17.222Z,2.10
2017-10-11T15:34:43.909Z,2.37
2017-10-11T15:37:11.117Z,2.00
2017-10-11T15:39:37.506Z,2.57
2017-10-11T15:42:03.889Z,2.20
2017-10-11T15:44:30.330Z,2.10
2017-10-11T15:46:56.740Z,1.77
2017-10-11T15:49:23.076Z,2.13
2017-10-11T15:51:49.408Z,1.93
2017-10-11T15:54:15.868Z,2.30
2017-10-11T15:56:42.271Z,2.93
2017-10-11T15:59:09.538Z,2.20
2017-10-11T16:01:35.809Z,2.50
2017-10-11T16:04:02.867Z,2.70
2017-10-11T16:06:29.231Z,2.17
2017-10-11T16:08:56.305Z,2.53
2017-10-11T16:11:22.679Z,2.20
2017-10-11T16:13:49.060Z,2.30
2017-10-11T16:16:15.367Z,2.07
2017-10-11T16:18:41.674Z,2.17
2017-10-11T16:21:07.989Z,2.03
2017-10-11T16:23:34.391Z,2.00
2017-10-11T16:26:00.970Z,1.83
2017-10-11T16:28:27.314Z,1.73
2017-10-11T16:30:53.710Z,1.83
2017-10-11T16:33:20.024Z,1.83
2017-10-11T16:35:46.326Z,2.30
2017-10-11T16:38:12.660Z,2.10
2017-10-11T16:40:38.999Z,2.47
2017-10-11T16:43:05.432Z,2.17
2017-10-11T16:45:31.765Z,2.20
2017-10-11T16:47:58.049Z,2.70
2017-10-11T16:50:24.348Z,2.70
2017-10-11T16:52:51.430Z,2.50
2017-10-11T16:55:17.826Z,2.10
2017-10-11T16:57:44.143Z,4.83
2017-10-11T17:00:10.487Z,2.70
2017-10-11T17:02:36.814Z,1.93
2017-10-11T17:05:03.149Z,2.90
2017-10-11T17:07:29.506Z,9.67
2017-10-11T17:09:55.923Z,2.57
2017-10-11T17:12:22.281Z,6.87
2017-10-11T17:14:48.612Z,3.83
2017-10-11T17:17:14.934Z,5.43
2017-10-11T17:19:41.340Z,4.40
2017-10-11T17:22:07.666Z,4.97
2017-10-11T17:24:34.231Z,3.33
2017-10-11T17:27:01.293Z,3.67
2017-10-11T17:29:27.711Z,4.07
2017-10-11T17:31:54.101Z,3.13
2017-10-11T17:34:20.462Z,3.13
2017-10-11T17:36:46.800Z,3.83
2017-10-11T17:39:13.869Z,3.07
2017-10-11T17:41:40.173Z,3.77
2017-10-11T17:44:06.505Z,3.97
2017-10-11T17:46:32.851Z,3.20
2017-10-11T17:48:59.963Z,3.30
2017-10-11T17:51:41.237Z,3.57
2017-10-11T17:54:07.568Z,4.47
2017-10-11T17:56:33.954Z,4.00
2017-10-11T17:59:00.282Z,4.17
2017-10-11T18:01:27.534Z,3.67
2017-10-11T18:03:53.877Z,4.03
2017-10-11T18:06:20.286Z,3.80
2017-10-11T18:08:46.664Z,4.33
2017-10-11T18:11:13.055Z,5.03
2017-10-11T18:13:40.383Z,5.13
2017-10-11T18:16:06.827Z,4.20
2017-10-11T18:18:33.229Z,4.40
2017-10-11T18:21:00.414Z,5.63
2017-10-11T18:23:26.843Z,5.63
2017-10-11T18:25:53.356Z,5.20
2017-10-11T18:28:19.795Z,5.30
2017-10-11T18:30:46.126Z,4.20
2017-10-11T18:35:45.532Z,5.37
2017-10-11T18:38:12.103Z,4.03
2017-10-11T18:40:39.169Z,4.47
2017-10-11T18:43:06.199Z,6.07
2017-10-11T18:45:32.535Z,5.40
2017-10-11T18:47:58.876Z,4.10
2017-10-11T18:50:25.228Z,3.47
2017-10-11T18:52:51.601Z,2.27
2017-10-11T18:55:18.011Z,2.20
2017-10-11T18:57:44.309Z,3.57
2017-10-11T19:00:10.655Z,2.97
2017-10-11T19:02:37.095Z,2.73
2017-10-11T19:05:03.459Z,3.00
2017-10-11T19:07:29.839Z,2.10
2017-10-11T19:09:56.359Z,2.10
2017-10-11T19:12:22.685Z,2.40
2017-10-11T19:14:49.080Z,2.20
2017-10-11T19:17:16.227Z,2.40
2017-10-11T19:19:42.700Z,2.97
2017-10-11T19:22:09.191Z,1.97
2017-10-11T19:24:35.516Z,2.13
2017-10-11T19:27:01.883Z,2.90
2017-10-11T19:29:28.306Z,2.53
2017-10-11T19:31:54.702Z,2.27
2017-10-11T19:34:21.073Z,1.90
2017-10-11T19:36:47.423Z,1.67
2017-10-11T19:39:13.742Z,1.90
2017-10-11T19:41:40.098Z,1.87
2017-10-11T19:44:06.563Z,1.97
2017-10-11T19:46:32.948Z,2.17
2017-10-11T19:48:59.499Z,1.70
2017-10-11T19:51:26.023Z,1.83
2017-10-11T19:53:52.351Z,1.93
2017-10-11T19:56:18.675Z,1.47
2017-10-11T19:58:45.023Z,1.93
2017-10-11T20:01:11.415Z,1.63
2017-10-11T20:03:37.757Z,2.00
2017-10-11T20:06:04.094Z,2.53
2017-10-11T20:08:30.435Z,1.87
2017-10-11T20:10:56.704Z,1.97
2017-10-11T20:13:23.046Z,1.77
2017-10-11T20:15:49.362Z,1.73
2017-10-11T20:18:16.579Z,1.77
2017-10-11T20:20:42.911Z,1.83
2017-10-11T20:23:09.267Z,1.50
2017-10-11T20:25:35.641Z,1.93
2017-10-11T20:28:01.915Z,1.50
2017-10-11T20:30:28.263Z,1.53
2017-10-11T20:32:54.667Z,1.83
2017-10-11T20:35:21.065Z,2.13
2017-10-11T20:37:47.433Z,1.87
2017-10-11T20:40:13.759Z,1.83
2017-10-11T20:42:40.061Z,2.23
2017-10-11T20:45:06.385Z,2.00
2017-10-11T20:47:32.748Z,1.90
2017-10-11T20:49:59.100Z,2.07
2017-10-11T20:52:25.410Z,1.50
2017-10-11T20:54:52.510Z,1.70
2017-10-11T20:57:19.608Z,1.97
2017-10-11T20:59:53.101Z,1.43
2017-10-11T21:02:19.681Z,1.90
2017-10-11T21:04:45.989Z,1.57
2017-10-11T21:07:12.298Z,1.80
2017-10-11T21:09:38.637Z,1.77
2017-10-11T21:12:05.765Z,1.90
2017-10-11T21:14:32.121Z,2.37
2017-10-11T21:16:58.429Z,2.13
2017-10-11T21:19:24.721Z,1.33
2017-10-11T21:21:51.745Z,1.40
2017-10-11T21:24:18.056Z,1.60
2017-10-11T21:26:44.354Z,2.00
2017-10-11T21:29:10.726Z,1.70
2017-10-11T21:31:37.053Z,1.70
2017-10-11T21:34:03.364Z,1.70
2017-10-11T21:36:29.692Z,1.70
2017-10-11T21:38:55.984Z,2.00
2017-10-11T21:41:22.476Z,1.40
2017-10-11T21:43:48.768Z,1.63
2017-10-11T21:46:15.848Z,1.90
2017-10-11T21:48:42.168Z,1.93
2017-10-11T21:51:08.556Z,2.00
2017-10-11T21:53:34.854Z,2.00
2017-10-11T21:56:01.124Z,1.73
2017-10-11T21:58:28.132Z,1.67
2017-10-11T22:00:54.474Z,1.73
2017-10-11T22:03:20.785Z,1.67
2017-10-11T22:05:47.090Z,2.40
2017-10-11T22:08:13.559Z,1.80
2017-10-11T22:10:40.583Z,2.40
2017-10-11T22:13:07.227Z,1.57
2017-10-11T22:15:33.547Z,2.20
2017-10-11T22:17:59.839Z,2.03
2017-10-11T22:20:26.169Z,2.10
2017-10-11T22:22:52.549Z,2.63
2017-10-11T22:25:18.869Z,2.17
2017-10-11T22:27:45.233Z,2.90
2017-10-11T22:30:11.573Z,2.73
2017-10-11T22:32:37.917Z,2.37
2017-10-11T22:35:04.241Z,2.10
2017-10-11T22:37:30.577Z,3.10
2017-10-11T22:39:56.855Z,2.33
2017-10-11T22:42:23.172Z,1.90
2017-10-11T22:44:50.216Z,2.40
2017-10-11T22:47:16.516Z,2.43
2017-10-11T22:49:42.808Z,1.67
2017-10-11T22:52:09.076Z,2.33
2017-10-11T22:54:35.337Z,1.87
2017-10-11T22:57:02.397Z,1.97
2017-10-11T22:59:28.684Z,2.20
2017-10-11T23:01:55.014Z,1.70
2017-10-11T23:04:21.265Z,2.23
2017-10-11T23:06:48.289Z,2.30
2017-10-11T23:09:14.537Z,1.80
2017-10-11T23:11:40.806Z,2.50
2017-10-11T23:14:07.063Z,2.20
2017-10-11T23:16:33.347Z,1.97
2017-10-11T23:18:59.605Z,2.47
2017-10-11T23:21:25.913Z,2.30
2017-10-11T23:23:52.347Z,1.90
2017-10-11T23:26:18.665Z,2.37
2017-10-11T23:28:45.704Z,2.27
2017-10-11T23:31:12.781Z,1.90
2017-10-11T23:33:39.111Z,1.40
2017-10-11T23:36:05.414Z,2.20
2017-10-11T23:38:32.550Z,1.93
2017-10-11T23:40:58.848Z,1.87
2017-10-11T23:43:25.188Z,2.13
2017-10-11T23:45:51.462Z,1.90
2017-10-11T23:48:17.784Z,1.73
2017-10-11T23:50:44.814Z,1.87
2017-10-11T23:53:11.152Z,1.90
2017-10-11T23:55:37.426Z,1.27
2017-10-11T23:58:03.744Z,1.20
